sensor_id;sensor_type;location;lat;lon;timestamp;P1;durP1;ratioP1;P2;durP2;ratioP2
5022;SDS011;2530;47.990;7.866;2023-03-21T00:01:57;2.50;;;1.90;;
5022;SDS011;2530;47.990;7.866;2023-03-21T00:04:23;1.80;;;1.70;;
5022;SDS011;2530;47.990;7.866;2023-03-21T00:06:50;2.55;;;2.20;;
5022;SDS011;2530;47.990;7.866;2023-03-21T00:09:16;2.30;;;2.10;;
5022;SDS011;2530;47.990;7.866;2023-03-21T00:11:42;2.97;;;2.30;;
5022;SDS011;2530;47.990;7.866;2023-03-21T00:14:08;2.65;;;2.45;;
5022;SDS011;2530;47.990;7.866;2023-03-21T00:16:38;2.92;;;2.47;;
5022;SDS011;2530;47.990;7.866;2023-03-21T00:19:04;2.00;;;1.90;;
5022;SDS011;2530;47.990;7.866;2023-03-21T00:21:30;2.40;;;2.20;;
5022;SDS011;2530;47.990;7.866;2023-03-21T00:23:58;2.15;;;1.95;;
5022;SDS011;2530;47.990;7.866;2023-03-21T00:26:24;2.30;;;2.10;;
5022;SDS011;2530;47.990;7.866;2023-03-21T00:28:50;2.28;;;2.05;;
5022;SDS011;2530;47.990;7.866;2023-03-21T00:31:16;3.03;;;1.67;;
5022;SDS011;2530;47.990;7.866;2023-03-21T00:33:42;1.70;;;1.60;;
5022;SDS011;2530;47.990;7.866;2023-03-21T00:36:08;2.90;;;1.80;;
5022;SDS011;2530;47.990;7.866;2023-03-21T00:38:35;1.60;;;1.50;;
5022;SDS011;2530;47.990;7.866;2023-03-21T00:41:02;2.25;;;1.70;;
5022;SDS011;2530;47.990;7.866;2023-03-21T00:43:30;2.20;;;1.63;;
5022;SDS011;2530;47.990;7.866;2023-03-21T00:45:56;1.90;;;1.70;;
5022;SDS011;2530;47.990;7.866;2023-03-21T00:48:23;2.78;;;1.70;;
5022;SDS011;2530;47.990;7.866;2023-03-21T00:50:50;1.60;;;1.50;;
5022;SDS011;2530;47.990;7.866;2023-03-21T00:53:18;2.33;;;1.70;;
5022;SDS011;2530;47.990;7.866;2023-03-21T00:55:44;2.88;;;2.45;;
5022;SDS011;2530;47.990;7.866;2023-03-21T00:58:10;1.65;;;1.50;;
5022;SDS011;2530;47.990;7.866;2023-03-21T01:00:36;2.00;;;1.70;;
5022;SDS011;2530;47.990;7.866;2023-03-21T01:03:03;2.00;;;1.50;;
5022;SDS011;2530;47.990;7.866;2023-03-21T01:05:32;1.60;;;1.40;;
5022;SDS011;2530;47.990;7.866;2023-03-21T01:08:19;1.70;;;1.40;;
5022;SDS011;2530;47.990;7.866;2023-03-21T01:10:46;1.38;;;1.20;;
5022;SDS011;2530;47.990;7.866;2023-03-21T01:13:14;2.08;;;1.25;;
5022;SDS011;2530;47.990;7.866;2023-03-21T01:15:42;1.70;;;1.60;;
5022;SDS011;2530;47.990;7.866;2023-03-21T01:18:13;1.90;;;1.50;;
5022;SDS011;2530;47.990;7.866;2023-03-21T01:20:41;1.42;;;1.33;;
5022;SDS011;2530;47.990;7.866;2023-03-21T01:23:08;1.88;;;1.50;;
5022;SDS011;2530;47.990;7.866;2023-03-21T01:25:34;2.28;;;1.60;;
5022;SDS011;2530;47.990;7.866;2023-03-21T01:28:00;2.00;;;1.30;;
5022;SDS011;2530;47.990;7.866;2023-03-21T01:30:26;2.60;;;2.00;;
5022;SDS011;2530;47.990;7.866;2023-03-21T01:32:51;2.40;;;1.90;;
5022;SDS011;2530;47.990;7.866;2023-03-21T01:35:17;1.80;;;1.60;;
5022;SDS011;2530;47.990;7.866;2023-03-21T01:37:43;2.20;;;1.40;;
5022;SDS011;2530;47.990;7.866;2023-03-21T01:40:19;2.17;;;1.80;;
5022;SDS011;2530;47.990;7.866;2023-03-21T01:42:49;1.70;;;1.60;;
5022;SDS011;2530;47.990;7.866;2023-03-21T01:48:18;2.10;;;1.90;;
5022;SDS011;2530;47.990;7.866;2023-03-21T01:50:45;2.25;;;2.05;;
5022;SDS011;2530;47.990;7.866;2023-03-21T01:53:11;2.10;;;1.90;;
5022;SDS011;2530;47.990;7.866;2023-03-21T01:55:37;1.83;;;1.73;;
5022;SDS011;2530;47.990;7.866;2023-03-21T01:58:04;1.73;;;1.63;;
5022;SDS011;2530;47.990;7.866;2023-03-21T02:00:31;1.63;;;1.50;;
5022;SDS011;2530;47.990;7.866;2023-03-21T02:02:58;1.80;;;1.70;;
5022;SDS011;2530;47.990;7.866;2023-03-21T02:05:31;1.88;;;1.77;;
5022;SDS011;2530;47.990;7.866;2023-03-21T02:08:04;1.80;;;1.70;;
5022;SDS011;2530;47.990;7.866;2023-03-21T02:10:30;2.30;;;1.90;;
5022;SDS011;2530;47.990;7.866;2023-03-21T02:12:57;2.05;;;1.50;;
5022;SDS011;2530;47.990;7.866;2023-03-21T02:15:33;2.28;;;1.80;;
5022;SDS011;2530;47.990;7.866;2023-03-21T02:18:15;1.90;;;1.73;;
5022;SDS011;2530;47.990;7.866;2023-03-21T02:23:36;2.97;;;1.90;;
5022;SDS011;2530;47.990;7.866;2023-03-21T02:29:31;2.67;;;1.75;;
5022;SDS011;2530;47.990;7.866;2023-03-21T02:37:58;3.00;;;1.40;;
5022;SDS011;2530;47.990;7.866;2023-03-21T02:40:47;1.70;;;1.58;;
5022;SDS011;2530;47.990;7.866;2023-03-21T02:43:38;2.00;;;1.80;;
5022;SDS011;2530;47.990;7.866;2023-03-21T02:46:20;1.50;;;1.40;;
5022;SDS011;2530;47.990;7.866;2023-03-21T02:49:24;1.53;;;1.43;;
5022;SDS011;2530;47.990;7.866;2023-03-21T02:51:57;2.90;;;1.60;;
5022;SDS011;2530;47.990;7.866;2023-03-21T02:54:24;2.80;;;1.70;;
5022;SDS011;2530;47.990;7.866;2023-03-21T02:56:51;2.53;;;1.60;;
5022;SDS011;2530;47.990;7.866;2023-03-21T02:59:18;2.53;;;2.05;;
5022;SDS011;2530;47.990;7.866;2023-03-21T03:01:46;1.40;;;1.30;;
5022;SDS011;2530;47.990;7.866;2023-03-21T03:04:17;2.70;;;1.60;;
5022;SDS011;2530;47.990;7.866;2023-03-21T03:12:48;2.85;;;2.00;;
5022;SDS011;2530;47.990;7.866;2023-03-21T03:14:52;1.73;;;1.63;;
5022;SDS011;2530;47.990;7.866;2023-03-21T03:17:52;2.22;;;1.70;;
5022;SDS011;2530;47.990;7.866;2023-03-21T03:20:29;1.88;;;1.75;;
5022;SDS011;2530;47.990;7.866;2023-03-21T03:25:53;2.28;;;1.70;;
5022;SDS011;2530;47.990;7.866;2023-03-21T03:28:22;1.75;;;1.65;;
5022;SDS011;2530;47.990;7.866;2023-03-21T03:30:51;1.48;;;1.38;;
5022;SDS011;2530;47.990;7.866;2023-03-21T03:33:19;1.80;;;1.70;;
5022;SDS011;2530;47.990;7.866;2023-03-21T03:35:47;1.77;;;1.67;;
5022;SDS011;2530;47.990;7.866;2023-03-21T03:38:16;2.00;;;1.60;;
5022;SDS011;2530;47.990;7.866;2023-03-21T03:40:44;2.38;;;1.60;;
5022;SDS011;2530;47.990;7.866;2023-03-21T03:43:15;1.70;;;1.60;;
5022;SDS011;2530;47.990;7.866;2023-03-21T03:45:48;1.92;;;1.80;;
5022;SDS011;2530;47.990;7.866;2023-03-21T03:50:59;2.60;;;1.40;;
5022;SDS011;2530;47.990;7.866;2023-03-21T03:53:40;1.60;;;1.50;;
5022;SDS011;2530;47.990;7.866;2023-03-21T03:56:10;1.38;;;1.27;;
5022;SDS011;2530;47.990;7.866;2023-03-21T03:58:36;1.75;;;1.63;;
5022;SDS011;2530;47.990;7.866;2023-03-21T04:01:04;1.80;;;1.70;;
5022;SDS011;2530;47.990;7.866;2023-03-21T04:03:31;3.28;;;1.60;;
5022;SDS011;2530;47.990;7.866;2023-03-21T04:05:59;1.70;;;1.60;;
5022;SDS011;2530;47.990;7.866;2023-03-21T04:08:24;1.50;;;1.40;;
5022;SDS011;2530;47.990;7.866;2023-03-21T04:10:50;2.03;;;1.70;;
5022;SDS011;2530;47.990;7.866;2023-03-21T04:13:15;1.60;;;1.50;;
5022;SDS011;2530;47.990;7.866;2023-03-21T04:15:42;2.30;;;2.10;;
5022;SDS011;2530;47.990;7.866;2023-03-21T04:18:09;1.50;;;1.40;;
5022;SDS011;2530;47.990;7.866;2023-03-21T04:20:35;1.60;;;1.50;;
5022;SDS011;2530;47.990;7.866;2023-03-21T04:23:00;2.05;;;1.67;;
5022;SDS011;2530;47.990;7.866;2023-03-21T04:25:26;1.80;;;1.70;;
5022;SDS011;2530;47.990;7.866;2023-03-21T04:27:54;1.70;;;1.60;;
5022;SDS011;2530;47.990;7.866;2023-03-21T04:30:20;1.70;;;1.60;;
5022;SDS011;2530;47.990;7.866;2023-03-21T04:32:48;1.60;;;1.50;;
5022;SDS011;2530;47.990;7.866;2023-03-21T04:35:20;1.98;;;1.75;;
5022;SDS011;2530;47.990;7.866;2023-03-21T04:37:47;1.90;;;1.80;;
5022;SDS011;2530;47.990;7.866;2023-03-21T04:40:12;1.63;;;1.53;;
5022;SDS011;2530;47.990;7.866;2023-03-21T04:42:41;1.50;;;1.40;;
5022;SDS011;2530;47.990;7.866;2023-03-21T04:45:07;2.08;;;1.85;;
5022;SDS011;2530;47.990;7.866;2023-03-21T04:47:33;1.90;;;1.60;;
5022;SDS011;2530;47.990;7.866;2023-03-21T04:49:59;2.70;;;1.80;;
5022;SDS011;2530;47.990;7.866;2023-03-21T04:52:24;1.70;;;1.60;;
5022;SDS011;2530;47.990;7.866;2023-03-21T04:54:50;2.00;;;1.58;;
5022;SDS011;2530;47.990;7.866;2023-03-21T04:57:16;1.70;;;1.60;;
5022;SDS011;2530;47.990;7.866;2023-03-21T04:59:42;2.22;;;1.60;;
5022;SDS011;2530;47.990;7.866;2023-03-21T05:02:08;1.60;;;1.50;;
5022;SDS011;2530;47.990;7.866;2023-03-21T05:04:33;2.30;;;1.80;;
5022;SDS011;2530;47.990;7.866;2023-03-21T05:06:59;1.88;;;1.48;;
5022;SDS011;2530;47.990;7.866;2023-03-21T05:09:24;1.80;;;1.70;;
5022;SDS011;2530;47.990;7.866;2023-03-21T05:11:50;2.10;;;1.90;;
5022;SDS011;2530;47.990;7.866;2023-03-21T05:14:17;2.67;;;1.63;;
5022;SDS011;2530;47.990;7.866;2023-03-21T05:16:47;2.42;;;1.85;;
5022;SDS011;2530;47.990;7.866;2023-03-21T05:19:17;1.70;;;1.60;;
5022;SDS011;2530;47.990;7.866;2023-03-21T05:21:46;1.90;;;1.70;;
5022;SDS011;2530;47.990;7.866;2023-03-21T05:24:14;1.88;;;1.77;;
5022;SDS011;2530;47.990;7.866;2023-03-21T05:26:41;2.30;;;1.90;;
5022;SDS011;2530;47.990;7.866;2023-03-21T05:29:08;2.10;;;1.60;;
5022;SDS011;2530;47.990;7.866;2023-03-21T05:31:34;2.10;;;1.90;;
5022;SDS011;2530;47.990;7.866;2023-03-21T05:34:00;3.40;;;1.80;;
5022;SDS011;2530;47.990;7.866;2023-03-21T05:36:26;1.90;;;1.80;;
5022;SDS011;2530;47.990;7.866;2023-03-21T05:38:51;2.20;;;2.00;;
5022;SDS011;2530;47.990;7.866;2023-03-21T05:41:17;2.00;;;1.70;;
5022;SDS011;2530;47.990;7.866;2023-03-21T05:43:42;2.20;;;2.00;;
5022;SDS011;2530;47.990;7.866;2023-03-21T05:46:08;2.03;;;1.83;;
5022;SDS011;2530;47.990;7.866;2023-03-21T05:48:35;3.20;;;1.90;;
5022;SDS011;2530;47.990;7.866;2023-03-21T05:51:02;4.10;;;1.70;;
5022;SDS011;2530;47.990;7.866;2023-03-21T05:53:28;2.00;;;1.80;;
5022;SDS011;2530;47.990;7.866;2023-03-21T05:55:53;2.63;;;1.60;;
5022;SDS011;2530;47.990;7.866;2023-03-21T05:58:19;2.42;;;1.80;;
5022;SDS011;2530;47.990;7.866;2023-03-21T06:00:45;2.60;;;1.60;;
5022;SDS011;2530;47.990;7.866;2023-03-21T06:03:10;1.60;;;1.50;;
5022;SDS011;2530;47.990;7.866;2023-03-21T06:05:36;2.10;;;1.90;;
5022;SDS011;2530;47.990;7.866;2023-03-21T06:08:01;2.25;;;2.05;;
5022;SDS011;2530;47.990;7.866;2023-03-21T06:10:27;2.20;;;2.00;;
5022;SDS011;2530;47.990;7.866;2023-03-21T06:12:53;2.40;;;2.20;;
5022;SDS011;2530;47.990;7.866;2023-03-21T06:15:18;3.10;;;1.90;;
5022;SDS011;2530;47.990;7.866;2023-03-21T06:17:44;2.20;;;2.00;;
5022;SDS011;2530;47.990;7.866;2023-03-21T06:20:10;2.65;;;2.45;;
5022;SDS011;2530;47.990;7.866;2023-03-21T06:22:36;3.10;;;2.08;;
5022;SDS011;2530;47.990;7.866;2023-03-21T06:25:02;3.20;;;2.67;;
5022;SDS011;2530;47.990;7.866;2023-03-21T06:27:29;3.08;;;2.78;;
5022;SDS011;2530;47.990;7.866;2023-03-21T06:29:55;3.40;;;3.00;;
5022;SDS011;2530;47.990;7.866;2023-03-21T06:32:22;4.82;;;3.10;;
5022;SDS011;2530;47.990;7.866;2023-03-21T06:34:47;3.72;;;2.70;;
5022;SDS011;2530;47.990;7.866;2023-03-21T06:37:13;3.70;;;2.40;;
5022;SDS011;2530;47.990;7.866;2023-03-21T06:39:39;2.42;;;2.20;;
5022;SDS011;2530;47.990;7.866;2023-03-21T06:42:04;2.63;;;2.40;;
5022;SDS011;2530;47.990;7.866;2023-03-21T06:44:30;3.20;;;2.20;;
5022;SDS011;2530;47.990;7.866;2023-03-21T06:46:56;2.20;;;1.90;;
5022;SDS011;2530;47.990;7.866;2023-03-21T06:49:21;4.13;;;2.20;;
5022;SDS011;2530;47.990;7.866;2023-03-21T06:51:47;3.03;;;2.20;;
5022;SDS011;2530;47.990;7.866;2023-03-21T06:54:12;3.13;;;2.30;;
5022;SDS011;2530;47.990;7.866;2023-03-21T06:56:39;2.20;;;2.00;;
5022;SDS011;2530;47.990;7.866;2023-03-21T06:59:05;3.08;;;2.20;;
5022;SDS011;2530;47.990;7.866;2023-03-21T07:01:32;2.90;;;2.00;;
5022;SDS011;2530;47.990;7.866;2023-03-21T07:03:57;3.50;;;2.03;;
5022;SDS011;2530;47.990;7.866;2023-03-21T07:06:23;3.00;;;2.00;;
5022;SDS011;2530;47.990;7.866;2023-03-21T07:08:52;2.70;;;2.10;;
5022;SDS011;2530;47.990;7.866;2023-03-21T07:11:19;2.40;;;2.10;;
5022;SDS011;2530;47.990;7.866;2023-03-21T07:13:46;2.05;;;1.90;;
5022;SDS011;2530;47.990;7.866;2023-03-21T07:16:12;1.80;;;1.70;;
5022;SDS011;2530;47.990;7.866;2023-03-21T07:18:38;1.80;;;1.60;;
5022;SDS011;2530;47.990;7.866;2023-03-21T07:21:04;3.70;;;2.20;;
5022;SDS011;2530;47.990;7.866;2023-03-21T07:23:30;2.10;;;1.67;;
5022;SDS011;2530;47.990;7.866;2023-03-21T07:25:55;4.10;;;1.73;;
5022;SDS011;2530;47.990;7.866;2023-03-21T07:28:21;2.10;;;1.50;;
5022;SDS011;2530;47.990;7.866;2023-03-21T07:30:54;2.03;;;1.70;;
5022;SDS011;2530;47.990;7.866;2023-03-21T07:33:22;1.80;;;1.60;;
5022;SDS011;2530;47.990;7.866;2023-03-21T07:35:49;2.60;;;1.67;;
5022;SDS011;2530;47.990;7.866;2023-03-21T07:38:16;2.33;;;1.85;;
5022;SDS011;2530;47.990;7.866;2023-03-21T07:40:42;2.17;;;1.80;;
5022;SDS011;2530;47.990;7.866;2023-03-21T07:43:09;3.80;;;1.50;;
5022;SDS011;2530;47.990;7.866;2023-03-21T07:45:34;2.10;;;1.90;;
5022;SDS011;2530;47.990;7.866;2023-03-21T07:48:00;1.80;;;1.70;;
5022;SDS011;2530;47.990;7.866;2023-03-21T07:50:26;1.77;;;1.58;;
5022;SDS011;2530;47.990;7.866;2023-03-21T07:52:51;1.60;;;1.50;;
5022;SDS011;2530;47.990;7.866;2023-03-21T07:55:17;1.80;;;1.70;;
5022;SDS011;2530;47.990;7.866;2023-03-21T07:57:43;2.10;;;1.80;;
5022;SDS011;2530;47.990;7.866;2023-03-21T08:00:09;2.60;;;2.00;;
5022;SDS011;2530;47.990;7.866;2023-03-21T08:02:36;1.87;;;1.67;;
5022;SDS011;2530;47.990;7.866;2023-03-21T08:05:01;2.80;;;1.70;;
5022;SDS011;2530;47.990;7.866;2023-03-21T08:07:28;3.35;;;1.20;;
5022;SDS011;2530;47.990;7.866;2023-03-21T08:09:54;2.30;;;1.50;;
5022;SDS011;2530;47.990;7.866;2023-03-21T08:12:20;1.80;;;1.50;;
5022;SDS011;2530;47.990;7.866;2023-03-21T08:14:46;2.30;;;1.73;;
5022;SDS011;2530;47.990;7.866;2023-03-21T08:17:11;3.10;;;1.63;;
5022;SDS011;2530;47.990;7.866;2023-03-21T08:19:37;1.80;;;1.70;;
5022;SDS011;2530;47.990;7.866;2023-03-21T08:22:03;1.70;;;1.60;;
5022;SDS011;2530;47.990;7.866;2023-03-21T08:24:29;3.15;;;2.40;;
5022;SDS011;2530;47.990;7.866;2023-03-21T08:26:55;2.90;;;2.60;;
5022;SDS011;2530;47.990;7.866;2023-03-21T08:29:21;3.40;;;2.60;;
5022;SDS011;2530;47.990;7.866;2023-03-21T08:31:46;3.25;;;2.95;;
5022;SDS011;2530;47.990;7.866;2023-03-21T08:34:12;2.78;;;2.58;;
5022;SDS011;2530;47.990;7.866;2023-03-21T08:36:38;6.80;;;2.90;;
5022;SDS011;2530;47.990;7.866;2023-03-21T08:39:04;3.30;;;2.90;;
5022;SDS011;2530;47.990;7.866;2023-03-21T08:41:30;4.28;;;2.92;;
5022;SDS011;2530;47.990;7.866;2023-03-21T08:43:57;3.45;;;2.95;;
5022;SDS011;2530;47.990;7.866;2023-03-21T08:46:22;3.22;;;2.50;;
5022;SDS011;2530;47.990;7.866;2023-03-21T08:48:48;2.90;;;2.60;;
5022;SDS011;2530;47.990;7.866;2023-03-21T08:51:13;2.60;;;2.40;;
5022;SDS011;2530;47.990;7.866;2023-03-21T08:53:39;3.30;;;2.83;;
5022;SDS011;2530;47.990;7.866;2023-03-21T08:56:05;3.97;;;2.85;;
5022;SDS011;2530;47.990;7.866;2023-03-21T08:58:32;4.05;;;2.97;;
5022;SDS011;2530;47.990;7.866;2023-03-21T09:00:57;3.30;;;2.70;;
5022;SDS011;2530;47.990;7.866;2023-03-21T09:03:23;4.50;;;2.30;;
5022;SDS011;2530;47.990;7.866;2023-03-21T09:05:54;5.00;;;2.78;;
5022;SDS011;2530;47.990;7.866;2023-03-21T09:08:20;3.80;;;2.50;;
5022;SDS011;2530;47.990;7.866;2023-03-21T09:10:47;3.42;;;2.60;;
5022;SDS011;2530;47.990;7.866;2023-03-21T09:13:14;2.50;;;2.30;;
5022;SDS011;2530;47.990;7.866;2023-03-21T09:15:39;4.88;;;2.45;;
5022;SDS011;2530;47.990;7.866;2023-03-21T09:18:05;3.20;;;2.17;;
5022;SDS011;2530;47.990;7.866;2023-03-21T09:20:42;3.03;;;2.40;;
5022;SDS011;2530;47.990;7.866;2023-03-21T09:23:10;4.22;;;2.40;;
5022;SDS011;2530;47.990;7.866;2023-03-21T09:25:37;2.40;;;2.13;;
5022;SDS011;2530;47.990;7.866;2023-03-21T09:28:03;1.90;;;1.80;;
5022;SDS011;2530;47.990;7.866;2023-03-21T09:30:30;2.92;;;1.73;;
5022;SDS011;2530;47.990;7.866;2023-03-21T09:32:57;2.25;;;2.05;;
5022;SDS011;2530;47.990;7.866;2023-03-21T09:35:25;2.17;;;1.90;;
5022;SDS011;2530;47.990;7.866;2023-03-21T09:37:52;4.65;;;2.00;;
5022;SDS011;2530;47.990;7.866;2023-03-21T09:40:19;4.20;;;1.90;;
5022;SDS011;2530;47.990;7.866;2023-03-21T09:46:01;3.40;;;1.80;;
5022;SDS011;2530;47.990;7.866;2023-03-21T09:51:35;3.00;;;1.90;;
5022;SDS011;2530;47.990;7.866;2023-03-21T09:54:21;1.83;;;1.73;;
5022;SDS011;2530;47.990;7.866;2023-03-21T09:56:57;1.95;;;1.80;;
5022;SDS011;2530;47.990;7.866;2023-03-21T09:59:29;4.70;;;1.70;;
5022;SDS011;2530;47.990;7.866;2023-03-21T10:02:01;2.05;;;1.85;;
5022;SDS011;2530;47.990;7.866;2023-03-21T10:04:57;2.22;;;1.80;;
5022;SDS011;2530;47.990;7.866;2023-03-21T10:07:24;2.38;;;2.08;;
5022;SDS011;2530;47.990;7.866;2023-03-21T10:09:52;1.90;;;1.80;;
5022;SDS011;2530;47.990;7.866;2023-03-21T10:12:20;2.60;;;2.00;;
5022;SDS011;2530;47.990;7.866;2023-03-21T10:14:50;3.50;;;2.20;;
5022;SDS011;2530;47.990;7.866;2023-03-21T10:17:37;3.00;;;2.53;;
5022;SDS011;2530;47.990;7.866;2023-03-21T10:22:57;3.17;;;2.30;;
5022;SDS011;2530;47.990;7.866;2023-03-21T10:27:58;4.00;;;2.40;;
5022;SDS011;2530;47.990;7.866;2023-03-21T10:30:28;3.92;;;2.50;;
5022;SDS011;2530;47.990;7.866;2023-03-21T10:33:05;2.50;;;2.30;;
5022;SDS011;2530;47.990;7.866;2023-03-21T10:35:33;2.80;;;2.20;;
5022;SDS011;2530;47.990;7.866;2023-03-21T10:38:02;2.65;;;2.10;;
5022;SDS011;2530;47.990;7.866;2023-03-21T10:40:29;2.30;;;2.00;;
5022;SDS011;2530;47.990;7.866;2023-03-21T10:42:55;2.05;;;1.92;;
5022;SDS011;2530;47.990;7.866;2023-03-21T10:45:22;2.22;;;2.00;;
5022;SDS011;2530;47.990;7.866;2023-03-21T10:47:48;4.53;;;2.10;;
5022;SDS011;2530;47.990;7.866;2023-03-21T10:50:16;3.17;;;2.00;;
5022;SDS011;2530;47.990;7.866;2023-03-21T10:52:51;4.85;;;2.17;;
5022;SDS011;2530;47.990;7.866;2023-03-21T10:57:51;3.20;;;2.00;;
5022;SDS011;2530;47.990;7.866;2023-03-21T11:00:23;2.13;;;1.70;;
5022;SDS011;2530;47.990;7.866;2023-03-21T11:02:53;2.60;;;2.10;;
5022;SDS011;2530;47.990;7.866;2023-03-21T11:08:11;2.30;;;2.10;;
5022;SDS011;2530;47.990;7.866;2023-03-21T11:13:25;2.30;;;2.10;;
5022;SDS011;2530;47.990;7.866;2023-03-21T11:16:02;3.80;;;2.20;;
5022;SDS011;2530;47.990;7.866;2023-03-21T11:18:40;2.67;;;1.98;;
5022;SDS011;2530;47.990;7.866;2023-03-21T11:21:08;2.40;;;2.20;;
5022;SDS011;2530;47.990;7.866;2023-03-21T11:23:40;2.40;;;2.20;;
5022;SDS011;2530;47.990;7.866;2023-03-21T11:26:18;2.40;;;2.20;;
5022;SDS011;2530;47.990;7.866;2023-03-21T11:28:48;2.78;;;2.47;;
5022;SDS011;2530;47.990;7.866;2023-03-21T11:31:15;2.92;;;2.30;;
5022;SDS011;2530;47.990;7.866;2023-03-21T11:33:42;2.33;;;2.13;;
5022;SDS011;2530;47.990;7.866;2023-03-21T11:38:47;2.83;;;2.50;;
5022;SDS011;2530;47.990;7.866;2023-03-21T11:41:22;2.65;;;2.40;;
5022;SDS011;2530;47.990;7.866;2023-03-21T11:43:56;2.80;;;2.40;;
5022;SDS011;2530;47.990;7.866;2023-03-21T11:46:22;2.40;;;2.10;;
5022;SDS011;2530;47.990;7.866;2023-03-21T11:48:50;2.83;;;2.33;;
5022;SDS011;2530;47.990;7.866;2023-03-21T11:53:50;3.00;;;2.60;;
5022;SDS011;2530;47.990;7.866;2023-03-21T11:59:12;2.53;;;2.33;;
5022;SDS011;2530;47.990;7.866;2023-03-21T12:04:54;2.63;;;2.43;;
5022;SDS011;2530;47.990;7.866;2023-03-21T12:13:20;4.30;;;2.70;;
5022;SDS011;2530;47.990;7.866;2023-03-21T12:16:18;2.70;;;2.50;;
5022;SDS011;2530;47.990;7.866;2023-03-21T12:19:00;2.60;;;2.40;;
5022;SDS011;2530;47.990;7.866;2023-03-21T12:26:56;4.10;;;2.90;;
5022;SDS011;2530;47.990;7.866;2023-03-21T12:29:45;3.03;;;2.30;;
5022;SDS011;2530;47.990;7.866;2023-03-21T12:40:57;3.20;;;2.20;;
5022;SDS011;2530;47.990;7.866;2023-03-21T12:44:10;1.90;;;1.80;;
5022;SDS011;2530;47.990;7.866;2023-03-21T12:46:21;3.63;;;1.90;;
5022;SDS011;2530;47.990;7.866;2023-03-21T12:48:54;2.75;;;2.20;;
5022;SDS011;2530;47.990;7.866;2023-03-21T12:51:28;1.90;;;1.70;;
5022;SDS011;2530;47.990;7.866;2023-03-21T12:56:51;1.60;;;1.30;;
5022;SDS011;2530;47.990;7.866;2023-03-21T12:59:34;1.30;;;0.80;;
5022;SDS011;2530;47.990;7.866;2023-03-21T13:02:15;0.70;;;0.60;;
5022;SDS011;2530;47.990;7.866;2023-03-21T13:04:56;1.50;;;0.70;;
5022;SDS011;2530;47.990;7.866;2023-03-21T13:07:42;1.00;;;0.80;;
5022;SDS011;2530;47.990;7.866;2023-03-21T13:10:14;1.00;;;0.55;;
5022;SDS011;2530;47.990;7.866;2023-03-21T13:21:13;1.40;;;0.60;;
5022;SDS011;2530;47.990;7.866;2023-03-21T13:23:45;0.70;;;0.57;;
5022;SDS011;2530;47.990;7.866;2023-03-21T13:26:38;0.70;;;0.52;;
5022;SDS011;2530;47.990;7.866;2023-03-21T13:29:40;1.02;;;0.70;;
5022;SDS011;2530;47.990;7.866;2023-03-21T13:32:19;0.90;;;0.50;;
5022;SDS011;2530;47.990;7.866;2023-03-21T13:34:57;0.90;;;0.60;;
5022;SDS011;2530;47.990;7.866;2023-03-21T13:37:39;0.80;;;0.60;;
5022;SDS011;2530;47.990;7.866;2023-03-21T13:40:28;0.60;;;0.50;;
5022;SDS011;2530;47.990;7.866;2023-03-21T13:43:24;1.50;;;0.60;;
5022;SDS011;2530;47.990;7.866;2023-03-21T13:46:04;1.50;;;0.70;;
5022;SDS011;2530;47.990;7.866;2023-03-21T13:51:40;0.70;;;0.60;;
5022;SDS011;2530;47.990;7.866;2023-03-21T13:57:05;1.08;;;0.77;;
5022;SDS011;2530;47.990;7.866;2023-03-21T14:04:42;1.52;;;0.75;;
5022;SDS011;2530;47.990;7.866;2023-03-21T14:07:28;0.80;;;0.60;;
5022;SDS011;2530;47.990;7.866;2023-03-21T14:10:40;0.98;;;0.80;;
5022;SDS011;2530;47.990;7.866;2023-03-21T14:13:06;1.50;;;0.70;;
5022;SDS011;2530;47.990;7.866;2023-03-21T14:15:42;1.00;;;0.90;;
5022;SDS011;2530;47.990;7.866;2023-03-21T14:18:21;1.58;;;0.80;;
5022;SDS011;2530;47.990;7.866;2023-03-21T14:20:52;1.10;;;1.00;;
5022;SDS011;2530;47.990;7.866;2023-03-21T14:23:22;1.70;;;0.88;;
5022;SDS011;2530;47.990;7.866;2023-03-21T14:25:48;1.30;;;0.88;;
5022;SDS011;2530;47.990;7.866;2023-03-21T14:28:19;1.50;;;1.10;;
5022;SDS011;2530;47.990;7.866;2023-03-21T14:30:51;1.25;;;0.90;;
5022;SDS011;2530;47.990;7.866;2023-03-21T14:33:23;1.83;;;0.93;;
5022;SDS011;2530;47.990;7.866;2023-03-21T14:36:13;3.75;;;1.10;;
5022;SDS011;2530;47.990;7.866;2023-03-21T14:38:41;0.90;;;0.80;;
5022;SDS011;2530;47.990;7.866;2023-03-21T14:41:26;1.38;;;1.20;;
5022;SDS011;2530;47.990;7.866;2023-03-21T14:46:38;1.10;;;1.00;;
5022;SDS011;2530;47.990;7.866;2023-03-21T14:49:09;1.75;;;1.00;;
5022;SDS011;2530;47.990;7.866;2023-03-21T14:51:46;1.40;;;1.10;;
5022;SDS011;2530;47.990;7.866;2023-03-21T14:54:15;1.30;;;1.00;;
5022;SDS011;2530;47.990;7.866;2023-03-21T14:56:43;1.70;;;1.10;;
5022;SDS011;2530;47.990;7.866;2023-03-21T14:59:31;1.80;;;1.20;;
5022;SDS011;2530;47.990;7.866;2023-03-21T15:02:00;2.25;;;1.30;;
5022;SDS011;2530;47.990;7.866;2023-03-21T15:04:30;1.40;;;1.10;;
5022;SDS011;2530;47.990;7.866;2023-03-21T15:06:58;1.70;;;1.00;;
5022;SDS011;2530;47.990;7.866;2023-03-21T15:09:28;1.10;;;0.90;;
5022;SDS011;2530;47.990;7.866;2023-03-21T15:11:56;1.90;;;1.27;;
5022;SDS011;2530;47.990;7.866;2023-03-21T15:14:24;1.55;;;1.20;;
5022;SDS011;2530;47.990;7.866;2023-03-21T15:16:55;1.40;;;1.15;;
5022;SDS011;2530;47.990;7.866;2023-03-21T15:19:24;1.20;;;1.10;;
5022;SDS011;2530;47.990;7.866;2023-03-21T15:21:55;1.60;;;1.20;;
5022;SDS011;2530;47.990;7.866;2023-03-21T15:24:35;1.73;;;1.20;;
5022;SDS011;2530;47.990;7.866;2023-03-21T15:27:05;1.85;;;1.20;;
5022;SDS011;2530;47.990;7.866;2023-03-21T15:29:33;1.80;;;1.20;;
5022;SDS011;2530;47.990;7.866;2023-03-21T15:32:04;1.88;;;1.00;;
5022;SDS011;2530;47.990;7.866;2023-03-21T15:34:35;2.80;;;1.40;;
5022;SDS011;2530;47.990;7.866;2023-03-21T15:37:03;3.67;;;1.50;;
5022;SDS011;2530;47.990;7.866;2023-03-21T15:39:31;1.90;;;1.20;;
5022;SDS011;2530;47.990;7.866;2023-03-21T15:42:02;1.20;;;1.10;;
5022;SDS011;2530;47.990;7.866;2023-03-21T15:44:47;2.20;;;1.08;;
5022;SDS011;2530;47.990;7.866;2023-03-21T15:47:34;1.80;;;1.20;;
5022;SDS011;2530;47.990;7.866;2023-03-21T15:50:07;1.10;;;1.00;;
5022;SDS011;2530;47.990;7.866;2023-03-21T15:52:37;2.00;;;1.08;;
5022;SDS011;2530;47.990;7.866;2023-03-21T15:55:14;3.10;;;1.20;;
5022;SDS011;2530;47.990;7.866;2023-03-21T15:58:03;2.20;;;1.38;;
5022;SDS011;2530;47.990;7.866;2023-03-21T16:00:40;3.70;;;1.50;;
5022;SDS011;2530;47.990;7.866;2023-03-21T16:03:41;1.33;;;0.93;;
5022;SDS011;2530;47.990;7.866;2023-03-21T16:06:02;1.63;;;1.05;;
5022;SDS011;2530;47.990;7.866;2023-03-21T16:08:47;1.70;;;1.13;;
5022;SDS011;2530;47.990;7.866;2023-03-21T16:11:40;2.40;;;1.00;;
5022;SDS011;2530;47.990;7.866;2023-03-21T16:14:07;1.23;;;1.13;;
5022;SDS011;2530;47.990;7.866;2023-03-21T16:16:34;1.30;;;0.85;;
5022;SDS011;2530;47.990;7.866;2023-03-21T16:19:00;1.30;;;1.00;;
5022;SDS011;2530;47.990;7.866;2023-03-21T16:21:27;2.70;;;0.90;;
5022;SDS011;2530;47.990;7.866;2023-03-21T16:23:55;1.40;;;0.80;;
5022;SDS011;2530;47.990;7.866;2023-03-21T16:26:23;1.30;;;1.00;;
5022;SDS011;2530;47.990;7.866;2023-03-21T16:28:51;1.50;;;1.00;;
5022;SDS011;2530;47.990;7.866;2023-03-21T16:31:18;1.50;;;1.10;;
5022;SDS011;2530;47.990;7.866;2023-03-21T16:33:45;1.10;;;0.90;;
5022;SDS011;2530;47.990;7.866;2023-03-21T16:36:34;3.00;;;1.10;;
5022;SDS011;2530;47.990;7.866;2023-03-21T16:39:01;1.67;;;1.30;;
5022;SDS011;2530;47.990;7.866;2023-03-21T16:41:43;1.33;;;1.10;;
5022;SDS011;2530;47.990;7.866;2023-03-21T16:44:09;1.40;;;1.05;;
5022;SDS011;2530;47.990;7.866;2023-03-21T16:46:36;1.30;;;0.90;;
5022;SDS011;2530;47.990;7.866;2023-03-21T16:49:02;1.00;;;0.88;;
5022;SDS011;2530;47.990;7.866;2023-03-21T16:51:32;1.80;;;1.05;;
5022;SDS011;2530;47.990;7.866;2023-03-21T16:53:58;1.25;;;1.00;;
5022;SDS011;2530;47.990;7.866;2023-03-21T16:56:26;1.50;;;1.20;;
5022;SDS011;2530;47.990;7.866;2023-03-21T16:58:59;2.67;;;1.20;;
5022;SDS011;2530;47.990;7.866;2023-03-21T17:01:25;1.47;;;1.37;;
5022;SDS011;2530;47.990;7.866;2023-03-21T17:03:51;2.00;;;1.40;;
5022;SDS011;2530;47.990;7.866;2023-03-21T17:06:18;1.80;;;1.40;;
5022;SDS011;2530;47.990;7.866;2023-03-21T17:08:46;2.08;;;1.20;;
5022;SDS011;2530;47.990;7.866;2023-03-21T17:11:13;1.40;;;1.30;;
5022;SDS011;2530;47.990;7.866;2023-03-21T17:13:40;2.75;;;1.23;;
5022;SDS011;2530;47.990;7.866;2023-03-21T17:16:10;2.03;;;1.17;;